Time;durP1;ratioP1;P1;durP2;ratioP2;P2;SDS_P1;SDS_P2;PMS_P1;PMS_P2;Temp;Humidity;BMP_temperature;BMP_pressure;BME280_temperature;BME280_humidity;BME280_pressure;Samples;Min_cycle;Max_cycle;Signal;HPM_P1;HPM_P2
2022/03/17 00:01:24;;;;;;;14.32;7.20;;;10.60;40.10;;;;;;5076271;28;20234;-51
2022/03/17 00:03:49;;;;;;;12.70;7.87;;;10.50;40.00;;;;;;5074984;28;20181;-51
2022/03/17 00:06:15;;;;;;;13.40;7.43;;;10.40;40.60;;;;;;5076828;28;20577;-50
2022/03/17 00:08:41;;;;;;;12.70;7.60;;;10.40;40.20;;;;;;5076326;28;20931;-51
2022/03/17 00:11:07;;;;;;;10.60;6.50;;;10.30;41.30;;;;;;5076326;28;20161;-51
2022/03/17 00:13:32;;;;;;;13.33;8.07;;;10.30;40.60;;;;;;5076129;28;20415;-51
2022/03/17 00:15:58;;;;;;;20.40;9.30;;;10.30;40.60;;;;;;5076057;28;20251;-51
2022/03/17 00:18:24;;;;;;;9.60;6.87;;;10.20;40.50;;;;;;5076071;28;20637;-51
2022/03/17 00:20:49;;;;;;;14.90;8.20;;;10.20;40.60;;;;;;5074636;28;20196;-51
2022/03/17 00:23:15;;;;;;;15.40;8.77;;;10.20;40.70;;;;;;5076008;28;20252;-51
2022/03/17 00:25:41;;;;;;;13.70;8.00;;;10.10;40.80;;;;;;5075852;28;20168;-51
2022/03/17 00:28:07;;;;;;;14.88;7.68;;;10.10;40.50;;;;;;5075936;28;20172;-51
2022/03/17 00:30:33;;;;;;;14.33;7.33;;;10.10;40.60;;;;;;5075796;28;20165;-51
2022/03/17 00:32:59;;;;;;;10.40;7.38;;;10.00;40.50;;;;;;5075828;28;20275;-51
2022/03/17 00:35:38;;;;;;;11.07;7.10;;;10.00;40.60;;;;;;5075733;28;20259;-51
2022/03/17 00:38:10;;;;;;;13.38;8.68;;;10.00;40.70;;;;;;5076026;28;20235;-51
2022/03/17 00:40:37;;;;;;;21.48;10.18;;;9.90;40.80;;;;;;5075492;28;20679;-51
2022/03/17 00:43:04;;;;;;;10.00;5.68;;;9.90;40.90;;;;;;5075740;28;20649;-51
2022/03/17 00:45:30;;;;;;;13.35;7.82;;;9.90;41.60;;;;;;5075501;28;20255;-50
2022/03/17 00:47:56;;;;;;;19.17;8.30;;;9.90;41.40;;;;;;5075440;28;20174;-51
2022/03/17 00:50:23;;;;;;;15.60;8.33;;;9.80;41.20;;;;;;5075636;28;20173;-50
2022/03/17 00:52:49;;;;;;;13.75;8.90;;;9.90;41.20;;;;;;5075497;28;20769;-50
2022/03/17 00:55:15;;;;;;;16.65;8.95;;;9.90;41.10;;;;;;5075224;28;20198;-51
2022/03/17 00:57:41;;;;;;;11.87;7.93;;;9.90;40.90;;;;;;5057441;28;20168;-51
2022/03/17 01:00:09;;;;;;;12.32;7.72;;;9.90;41.00;;;;;;5075242;28;20161;-51
2022/03/17 01:02:36;;;;;;;20.52;9.20;;;9.80;40.80;;;;;;5075191;28;20211;-51
2022/03/17 01:05:02;;;;;;;15.15;7.97;;;9.80;41.00;;;;;;5074271;28;20180;-51
2022/03/17 01:07:28;;;;;;;12.70;7.55;;;9.80;40.90;;;;;;5075138;28;20578;-51
2022/03/17 01:09:53;;;;;;;11.57;7.93;;;9.80;41.00;;;;;;5075061;28;20179;-51
2022/03/17 01:12:19;;;;;;;12.00;6.90;;;9.80;41.00;;;;;;5075080;28;20173;-51
2022/03/17 01:14:47;;;;;;;13.10;6.43;;;9.70;41.20;;;;;;5073397;28;20171;-52
2022/03/17 01:17:12;;;;;;;13.93;6.90;;;9.70;41.20;;;;;;5075208;28;20576;-51
2022/03/17 01:19:38;;;;;;;9.97;7.53;;;9.70;41.10;;;;;;5073554;28;20196;-51
2022/03/17 01:22:04;;;;;;;10.10;6.37;;;9.70;41.00;;;;;;5074665;28;20201;-51
2022/03/17 01:24:30;;;;;;;15.17;7.50;;;9.70;41.10;;;;;;5075004;28;20188;-51
2022/03/17 01:26:55;;;;;;;16.57;7.77;;;9.70;41.20;;;;;;5074645;28;20575;-51
2022/03/17 01:29:21;;;;;;;12.53;8.00;;;9.70;41.10;;;;;;5073848;28;20169;-52
2022/03/17 01:31:47;;;;;;;14.10;7.00;;;9.70;40.90;;;;;;5074258;28;20247;-51
2022/03/17 01:34:12;;;;;;;11.77;6.80;;;9.60;41.20;;;;;;5074770;28;20220;-51
2022/03/17 01:36:38;;;;;;;12.03;7.07;;;9.50;41.20;;;;;;5074444;28;20173;-51
2022/03/17 01:39:04;;;;;;;11.63;6.87;;;9.50;41.60;;;;;;5073181;28;20876;-51
2022/03/17 01:41:30;;;;;;;11.88;7.20;;;9.50;41.90;;;;;;5074507;28;20676;-51
2022/03/17 01:43:56;;;;;;;12.30;6.80;;;9.40;41.50;;;;;;5074348;28;20203;-51
2022/03/17 01:46:21;;;;;;;16.73;8.77;;;9.30;41.90;;;;;;5074287;28;20571;-51
2022/03/17 01:48:47;;;;;;;9.77;6.77;;;9.40;41.50;;;;;;5072990;28;20173;-51
2022/03/17 01:51:13;;;;;;;9.90;6.20;;;9.30;41.30;;;;;;5074162;28;20164;-51
2022/03/17 01:53:39;;;;;;;15.70;8.63;;;9.30;41.20;;;;;;5074214;28;20415;-51
2022/03/17 01:56:05;;;;;;;14.47;9.70;;;9.20;41.20;;;;;;5074084;28;20410;-51
2022/03/17 01:58:31;;;;;;;11.13;6.43;;;9.30;41.20;;;;;;5074141;28;20498;-51
2022/03/17 02:00:57;;;;;;;12.03;6.87;;;9.20;41.20;;;;;;5073992;28;20604;-51
2022/03/17 02:03:26;;;;;;;14.85;7.13;;;9.20;41.20;;;;;;5074079;28;20960;-51
2022/03/17 02:05:53;;;;;;;11.65;6.45;;;9.10;41.40;;;;;;5073971;28;20323;-51
2022/03/17 02:08:19;;;;;;;12.52;7.18;;;9.10;41.40;;;;;;5072652;28;20267;-51
2022/03/17 02:13:29;;;;;;;14.32;8.63;;;9.00;41.60;;;;;;5074014;28;20793;-51
2022/03/17 02:15:55;;;;;;;11.40;6.70;;;8.90;42.40;;;;;;5072245;28;20252;-51
2022/03/17 02:18:21;;;;;;;16.98;9.10;;;8.80;42.10;;;;;;5073852;28;20198;-52
2022/03/17 02:20:48;;;;;;;15.18;7.78;;;8.90;42.00;;;;;;5072404;28;20265;-52
2022/03/17 02:26:04;;;;;;;12.95;7.85;;;8.90;41.90;;;;;;5074018;28;20174;-52
2022/03/17 02:28:32;;;;;;;13.82;8.07;;;8.80;41.70;;;;;;5073779;28;20631;-52
2022/03/17 02:30:59;;;;;;;12.43;7.75;;;8.80;41.60;;;;;;5072317;28;20199;-51
2022/03/17 02:33:26;;;;;;;15.70;6.60;;;8.80;41.60;;;;;;5073724;28;20267;-51
2022/03/17 02:35:53;;;;;;;13.00;6.15;;;8.80;41.40;;;;;;5073582;28;20659;-51
2022/03/17 02:38:20;;;;;;;10.20;5.95;;;8.80;41.60;;;;;;5073778;28;20184;-51
2022/03/17 02:40:50;;;;;;;11.80;5.80;;;8.80;41.60;;;;;;5072906;28;20184;-51
2022/03/17 02:43:16;;;;;;;18.50;8.63;;;8.80;41.70;;;;;;5071990;28;20224;-51
2022/03/17 02:45:43;;;;;;;14.73;7.05;;;8.80;41.80;;;;;;5073497;28;20156;-51
2022/03/17 02:48:10;;;;;;;9.95;5.45;;;8.80;41.90;;;;;;5073408;28;20255;-51
2022/03/17 02:50:35;;;;;;;10.20;7.20;;;8.80;42.90;;;;;;5073526;28;20166;-52
2022/03/17 02:53:08;;;;;;;13.73;8.00;;;8.70;42.60;;;;;;5073438;28;20160;-51
2022/03/17 02:55:40;;;;;;;11.27;6.35;;;8.70;42.20;;;;;;5073415;28;20388;-51
2022/03/17 02:58:07;;;;;;;11.02;6.43;;;8.70;42.10;;;;;;5073329;28;20174;-51
2022/03/17 03:00:34;;;;;;;9.55;5.60;;;8.70;42.00;;;;;;5071967;28;20553;-51
2022/03/17 03:03:00;;;;;;;13.95;7.80;;;8.70;42.20;;;;;;5073353;28;20172;-51
2022/03/17 03:05:26;;;;;;;20.02;9.45;;;8.70;41.90;;;;;;5073218;28;20172;-52
2022/03/17 03:07:53;;;;;;;16.48;7.10;;;8.70;42.00;;;;;;5073163;28;20232;-52
2022/03/17 03:10:20;;;;;;;11.20;5.75;;;8.80;42.10;;;;;;5071917;28;20178;-52
2022/03/17 03:12:46;;;;;;;12.10;6.43;;;8.70;41.80;;;;;;5071932;28;20178;-52
2022/03/17 03:15:12;;;;;;;17.27;6.13;;;8.70;42.30;;;;;;5071638;28;20269;-52
2022/03/17 03:17:38;;;;;;;10.88;6.25;;;8.70;42.20;;;;;;5073088;28;20607;-52
2022/03/17 03:20:05;;;;;;;10.80;5.82;;;8.60;42.10;;;;;;5071748;28;20211;-51
2022/03/17 03:22:36;;;;;;;16.58;7.85;;;8.70;42.10;;;;;;5073009;28;20669;-52
2022/03/17 03:25:03;;;;;;;17.98;8.88;;;8.60;42.00;;;;;;5073133;28;20168;-52
2022/03/17 03:27:29;;;;;;;15.85;7.90;;;8.60;42.60;;;;;;5071741;28;20561;-52
2022/03/17 03:29:55;;;;;;;9.73;6.90;;;8.60;42.20;;;;;;5073030;28;20172;-51
2022/03/17 03:32:22;;;;;;;12.35;6.53;;;8.50;42.10;;;;;;5073003;28;20254;-52
2022/03/17 03:34:48;;;;;;;10.27;5.80;;;8.50;42.20;;;;;;5071723;28;20214;-51
2022/03/17 03:37:23;;;;;;;12.00;6.67;;;8.50;42.10;;;;;;5072940;28;20166;-52
2022/03/17 03:39:54;;;;;;;10.50;7.80;;;8.40;42.10;;;;;;5072999;28;20375;-51
2022/03/17 03:42:20;;;;;;;8.13;5.68;;;8.40;42.10;;;;;;5073071;28;20640;-51
2022/03/17 03:44:46;;;;;;;12.55;7.53;;;8.40;41.90;;;;;;5072930;28;20172;-51
2022/03/17 03:47:13;;;;;;;10.90;5.57;;;8.40;42.00;;;;;;5072816;28;20255;-52
2022/03/17 03:49:39;;;;;;;6.72;5.18;;;8.30;42.10;;;;;;5072981;28;20164;-51
2022/03/17 03:52:11;;;;;;;12.45;6.18;;;8.30;42.20;;;;;;5072921;28;20556;-52
2022/03/17 03:54:37;;;;;;;8.75;5.00;;;8.30;42.10;;;;;;5076823;28;20236;-51
2022/03/17 03:57:04;;;;;;;13.00;6.97;;;8.30;42.00;;;;;;5076696;28;20592;-51
2022/03/17 03:59:30;;;;;;;11.95;6.40;;;8.30;42.20;;;;;;5076352;28;20168;-51
2022/03/17 04:02:06;;;;;;;13.90;6.47;;;8.20;42.10;;;;;;5076277;28;20193;-51
2022/03/17 04:04:34;;;;;;;8.30;5.25;;;8.20;42.10;;;;;;5075109;28;20504;-52
2022/03/17 04:07:02;;;;;;;10.60;6.10;;;8.20;42.30;;;;;;5075351;28;20189;-51
2022/03/17 04:09:29;;;;;;;10.90;5.97;;;8.20;42.10;;;;;;5076215;28;20169;-51
2022/03/17 04:11:56;;;;;;;10.88;6.38;;;8.20;42.40;;;;;;5076127;28;20272;-51
2022/03/17 04:14:22;;;;;;;10.43;5.68;;;8.20;42.70;;;;;;5076242;28;20638;-52
2022/03/17 04:16:49;;;;;;;8.50;5.75;;;8.20;42.10;;;;;;5075859;28;20573;-51
2022/03/17 04:19:17;;;;;;;8.90;4.97;;;8.20;42.10;;;;;;5076014;28;20573;-51
2022/03/17 04:21:44;;;;;;;8.02;6.32;;;8.20;42.10;;;;;;5075920;28;20254;-51
2022/03/17 04:24:10;;;;;;;8.85;4.57;;;8.20;42.10;;;;;;5075993;28;20184;-51
2022/03/17 04:26:36;;;;;;;8.57;5.20;;;8.10;42.30;;;;;;5075837;28;20168;-51
2022/03/17 04:29:02;;;;;;;21.23;7.93;;;8.10;42.00;;;;;;5074595;28;20170;-51
2022/03/17 04:31:29;;;;;;;8.40;5.88;;;8.10;42.10;;;;;;5075794;28;20163;-51
2022/03/17 04:33:55;;;;;;;9.70;5.80;;;8.00;42.40;;;;;;5075847;28;20175;-51
2022/03/17 04:36:21;;;;;;;8.90;4.65;;;7.90;42.30;;;;;;5075683;28;20214;-51
2022/03/17 04:38:47;;;;;;;6.90;4.45;;;7.90;42.30;;;;;;5075905;28;20193;-51
2022/03/17 04:41:13;;;;;;;11.17;6.27;;;7.90;42.30;;;;;;5075523;28;20197;-51
2022/03/17 04:43:39;;;;;;;9.80;5.40;;;7.90;42.50;;;;;;5075503;28;20414;-51
2022/03/17 04:46:07;;;;;;;11.83;6.13;;;7.80;42.50;;;;;;5074241;28;20470;-51
2022/03/17 04:48:33;;;;;;;14.18;7.05;;;7.90;42.60;;;;;;5075471;28;20425;-51
2022/03/17 04:50:59;;;;;;;11.93;5.32;;;7.90;42.90;;;;;;5075539;28;20223;-51
2022/03/17 04:53:27;;;;;;;14.43;6.40;;;7.90;43.40;;;;;;5075382;28;20170;-51
2022/03/17 04:55:57;;;;;;;10.25;5.38;;;7.80;43.70;;;;;;5075466;28;20222;-51
2022/03/17 04:58:23;;;;;;;9.82;5.55;;;7.90;42.80;;;;;;5075254;28;20171;-51
2022/03/17 05:00:52;;;;;;;13.10;6.75;;;7.90;42.60;;;;;;5075430;28;20248;-51
2022/03/17 05:03:19;;;;;;;11.63;6.95;;;7.90;42.60;;;;;;5075249;28;20231;-51
2022/03/17 05:05:45;;;;;;;14.40;8.20;;;7.90;43.30;;;;;;5074102;28;20184;-51
2022/03/17 05:08:11;;;;;;;13.52;6.28;;;7.90;42.60;;;;;;5075000;28;20173;-51
2022/03/17 05:10:37;;;;;;;11.10;6.23;;;7.90;42.40;;;;;;5074977;28;20667;-51
2022/03/17 05:13:08;;;;;;;10.75;6.63;;;8.00;42.20;;;;;;5075609;28;20265;-51
2022/03/17 05:15:35;;;;;;;10.55;6.65;;;7.90;42.70;;;;;;5074682;28;20233;-51
2022/03/17 05:18:02;;;;;;;11.05;6.75;;;7.80;43.00;;;;;;5074836;28;20167;-51
2022/03/17 05:20:28;;;;;;;11.32;5.40;;;7.70;43.60;;;;;;5074869;28;20196;-51
2022/03/17 05:22:54;;;;;;;12.53;6.60;;;7.70;44.00;;;;;;5074747;28;20170;-51
2022/03/17 05:25:20;;;;;;;9.70;5.93;;;7.70;43.70;;;;;;5074650;28;20424;-51
2022/03/17 05:27:49;;;;;;;6.30;3.83;;;7.70;44.70;;;;;;5073237;28;20228;-51
2022/03/17 05:30:17;;;;;;;10.73;6.03;;;7.70;44.30;;;;;;5074665;28;20172;-51
2022/03/17 05:32:44;;;;;;;16.60;6.78;;;7.70;43.90;;;;;;5074438;28;20162;-51
2022/03/17 05:35:10;;;;;;;10.30;6.07;;;7.80;43.70;;;;;;5074576;28;20688;-51
2022/03/17 05:37:37;;;;;;;10.05;6.63;;;7.90;43.50;;;;;;5074463;28;20175;-51
2022/03/17 05:40:13;;;;;;;9.68;4.97;;;7.90;43.20;;;;;;5073630;28;20293;-51
2022/03/17 05:42:40;;;;;;;9.25;5.95;;;7.90;43.20;;;;;;5074362;28;20162;-51
2022/03/17 05:45:06;;;;;;;13.00;6.75;;;7.90;43.20;;;;;;5074230;28;20180;-51
2022/03/17 05:47:48;;;;;;;12.27;4.95;;;7.90;43.10;;;;;;5074207;28;20196;-51
2022/03/17 05:50:17;;;;;;;10.77;4.85;;;7.90;43.10;;;;;;5074323;28;20154;-51
2022/03/17 05:52:44;;;;;;;14.10;6.03;;;7.80;43.20;;;;;;5074142;28;20161;-51
2022/03/17 05:55:12;;;;;;;16.35;7.95;;;7.80;43.60;;;;;;5074162;28;20636;-51
2022/03/17 05:57:39;;;;;;;13.30;7.38;;;7.80;43.60;;;;;;5073475;28;20179;-51
2022/03/17 06:00:07;;;;;;;14.07;7.65;;;7.80;43.80;;;;;;5074160;28;20173;-51
2022/03/17 06:02:34;;;;;;;15.60;6.65;;;7.80;43.60;;;;;;5074147;28;20652;-51
2022/03/17 06:04:59;;;;;;;14.40;7.03;;;7.90;43.60;;;;;;5073909;28;20176;-51
2022/03/17 06:07:25;;;;;;;9.67;6.07;;;8.00;43.60;;;;;;5073748;28;20164;-51
2022/03/17 06:09:55;;;;;;;12.57;6.43;;;8.00;43.50;;;;;;5073851;28;20202;-51
2022/03/17 06:12:20;;;;;;;19.48;6.82;;;8.00;43.40;;;;;;5073797;28;20665;-51
2022/03/17 06:14:46;;;;;;;15.90;5.77;;;8.00;43.40;;;;;;5073823;28;20172;-51
2022/03/17 06:17:12;;;;;;;17.10;7.07;;;8.10;43.60;;;;;;5073434;28;20220;-51
2022/03/17 06:19:38;;;;;;;10.60;7.20;;;8.10;43.50;;;;;;5073765;28;20571;-51
2022/03/17 06:22:04;;;;;;;14.50;6.75;;;8.20;43.50;;;;;;5073547;28;20447;-51
2022/03/17 06:24:30;;;;;;;12.97;8.63;;;8.20;44.10;;;;;;5072322;28;20183;-51
2022/03/17 06:26:55;;;;;;;16.20;7.97;;;8.20;45.30;;;;;;5073493;28;20660;-51
2022/03/17 06:29:21;;;;;;;17.60;7.70;;;8.30;44.30;;;;;;5073654;28;20168;-51
2022/03/17 06:31:47;;;;;;;13.37;7.33;;;8.40;43.90;;;;;;5073471;28;20558;-51
2022/03/17 06:34:12;;;;;;;13.40;7.63;;;8.50;43.70;;;;;;5072195;28;20175;-51
2022/03/17 06:36:38;;;;;;;23.27;9.57;;;8.60;43.50;;;;;;5073528;28;20242;-51
2022/03/17 06:39:04;;;;;;;18.30;8.97;;;8.70;43.50;;;;;;5072135;28;20226;-51
2022/03/17 06:41:30;;;;;;;14.40;8.70;;;8.80;43.30;;;;;;5073356;28;20607;-51
2022/03/17 06:43:55;;;;;;;16.20;8.97;;;8.80;43.50;;;;;;5073423;28;20225;-51
2022/03/17 06:46:21;;;;;;;20.30;10.00;;;8.90;44.10;;;;;;5073283;28;20526;-51
2022/03/17 06:48:46;;;;;;;19.47;11.07;;;8.90;43.80;;;;;;5072052;28;20172;-51
2022/03/17 06:51:12;;;;;;;20.43;10.30;;;9.00;43.90;;;;;;5073313;28;20216;-51
2022/03/17 06:53:38;;;;;;;14.07;8.37;;;9.20;43.70;;;;;;5073186;28;20165;-51
2022/03/17 06:56:04;;;;;;;20.37;11.43;;;9.30;43.60;;;;;;5073321;28;20209;-51
2022/03/17 06:58:30;;;;;;;26.97;13.90;;;9.40;43.60;;;;;;5073305;28;20195;-51
2022/03/17 07:00:57;;;;;;;18.20;11.02;;;9.50;43.40;;;;;;5073123;28;20517;-51
2022/03/17 07:03:22;;;;;;;17.23;10.85;;;9.60;43.30;;;;;;5073474;28;20287;-51
2022/03/17 07:05:48;;;;;;;28.23;11.07;;;9.80;43.20;;;;;;5073185;28;20167;-51
2022/03/17 07:08:13;;;;;;;19.67;13.50;;;9.90;43.00;;;;;;5073073;28;20172;-51
2022/03/17 07:10:39;;;;;;;19.80;13.90;;;10.10;42.90;;;;;;5073204;28;20633;-51
2022/03/17 07:13:05;;;;;;;20.57;12.80;;;10.20;42.90;;;;;;5073084;28;20522;-51
2022/03/17 07:15:30;;;;;;;25.37;12.87;;;10.20;42.80;;;;;;5072984;28;20552;-51
2022/03/17 07:17:56;;;;;;;21.90;13.70;;;10.30;42.60;;;;;;5073132;28;20164;-51
2022/03/17 07:20:23;;;;;;;23.33;13.60;;;10.50;42.30;;;;;;5073112;28;20180;-51
2022/03/17 07:22:50;;;;;;;19.73;13.07;;;10.60;42.20;;;;;;5073440;28;20521;-51
2022/03/17 07:25:17;;;;;;;31.33;15.15;;;10.70;42.20;;;;;;5072891;28;20184;-51
2022/03/17 07:27:45;;;;;;;22.23;12.98;;;10.80;41.80;;;;;;5074139;28;20199;-51
2022/03/17 07:30:18;;;;;;;26.45;13.75;;;10.80;41.60;;;;;;5075632;28;20217;-51
2022/03/17 07:32:45;;;;;;;25.27;14.48;;;10.90;41.60;;;;;;5076970;28;20149;-51
2022/03/17 07:35:12;;;;;;;23.00;13.65;;;11.00;41.60;;;;;;5076656;28;20502;-51
2022/03/17 07:37:38;;;;;;;20.42;13.43;;;11.20;41.60;;;;;;5076147;28;20177;-51
2022/03/17 07:40:05;;;;;;;22.20;13.95;;;11.20;41.60;;;;;;5076629;28;20165;-51
2022/03/17 07:42:30;;;;;;;23.80;13.88;;;11.40;41.80;;;;;;5076549;28;20177;-51
2022/03/17 07:44:56;;;;;;;26.00;15.40;;;11.40;41.40;;;;;;5076728;28;20248;-51
2022/03/17 07:47:22;;;;;;;26.77;14.33;;;11.50;41.40;;;;;;5076521;28;20173;-51
2022/03/17 07:49:48;;;;;;;22.93;12.50;;;11.60;41.40;;;;;;5076501;28;20175;-51
2022/03/17 07:52:13;;;;;;;28.73;15.47;;;11.70;41.50;;;;;;5075052;28;20184;-51
2022/03/17 07:54:39;;;;;;;31.83;15.63;;;11.80;40.90;;;;;;5076366;28;20234;-51
2022/03/17 07:57:07;;;;;;;27.77;14.40;;;11.90;39.80;;;;;;5076373;28;20407;-51
2022/03/17 07:59:33;;;;;;;22.45;15.35;;;12.00;39.40;;;;;;5076321;28;20500;-52
2022/03/17 08:01:59;;;;;;;28.35;13.98;;;12.00;39.30;;;;;;5074911;28;20548;-51
2022/03/17 08:04:25;;;;;;;24.30;14.00;;;12.10;38.00;;;;;;5076206;28;20169;-51
2022/03/17 08:06:53;;;;;;;26.35;15.63;;;12.20;38.50;;;;;;5076147;28;20414;-51
2022/03/17 08:09:20;;;;;;;34.22;13.48;;;12.30;38.80;;;;;;5076131;28;20183;-51
2022/03/17 08:11:49;;;;;;;26.83;15.75;;;12.40;38.50;;;;;;5074817;28;20218;-51
2022/03/17 08:14:17;;;;;;;20.65;11.23;;;12.40;38.00;;;;;;5076003;28;20645;-51
2022/03/17 08:16:44;;;;;;;24.98;14.43;;;12.50;38.20;;;;;;5074545;28;20365;-52
2022/03/17 08:19:11;;;;;;;30.77;14.93;;;12.50;37.40;;;;;;5075947;28;20244;-52
2022/03/17 08:21:40;;;;;;;21.65;14.10;;;12.50;37.10;;;;;;5076025;28;20661;-52
2022/03/17 08:24:09;;;;;;;24.48;14.32;;;12.60;36.40;;;;;;5075932;28;20177;-51
2022/03/17 08:26:35;;;;;;;26.30;12.48;;;12.50;36.90;;;;;;5074451;28;20169;-51
2022/03/17 08:29:01;;;;;;;29.50;14.30;;;12.60;36.60;;;;;;5075820;28;20188;-51
2022/03/17 08:31:27;;;;;;;27.92;14.98;;;12.70;37.20;;;;;;5075701;28;20411;-51
2022/03/17 08:33:56;;;;;;;31.02;17.33;;;12.80;36.80;;;;;;5074490;28;20230;-51
2022/03/17 08:36:23;;;;;;;23.90;15.73;;;12.90;37.20;;;;;;5075717;28;20625;-52
2022/03/17 08:38:50;;;;;;;34.83;14.57;;;12.90;36.30;;;;;;5074581;28;20260;-52
2022/03/17 08:41:16;;;;;;;22.17;13.30;;;13.00;36.90;;;;;;5073802;28;20197;-52
2022/03/17 08:43:41;;;;;;;28.37;15.70;;;13.10;36.50;;;;;;5075459;28;20175;-51
2022/03/17 08:51:35;;;;;;;28.83;16.05;;;13.20;36.00;;;;;;5075382;28;20228;-51
2022/03/17 08:54:01;;;;;;;21.50;15.23;;;13.20;36.10;;;;;;5074053;28;20177;-52
2022/03/17 08:56:28;;;;;;;29.17;16.10;;;13.30;36.30;;;;;;5073916;28;20411;-51
2022/03/17 08:58:55;;;;;;;24.75;14.35;;;13.40;36.40;;;;;;5075321;28;20790;-51
2022/03/17 09:01:20;;;;;;;28.52;13.98;;;13.50;35.70;;;;;;5075075;28;20204;-51
2022/03/17 09:03:46;;;;;;;26.87;15.53;;;13.50;35.30;;;;;;5075265;28;20266;-51
2022/03/17 09:06:12;;;;;;;22.27;13.70;;;13.50;35.00;;;;;;5075080;28;20521;-51
2022/03/17 09:08:41;;;;;;;29.23;14.87;;;13.50;35.10;;;;;;5075006;28;20791;-51
2022/03/17 09:11:07;;;;;;;20.35;14.65;;;13.50;35.50;;;;;;5075122;28;20651;-51
2022/03/17 09:13:34;;;;;;;17.97;13.30;;;13.60;35.60;;;;;;5074877;28;20243;-51
2022/03/17 09:16:00;;;;;;;25.15;14.65;;;13.70;35.60;;;;;;5074803;28;20458;-51
2022/03/17 09:18:27;;;;;;;24.63;15.70;;;13.80;35.20;;;;;;5073551;28;20203;-51
2022/03/17 09:20:53;;;;;;;22.80;14.90;;;13.80;34.90;;;;;;5074675;28;20454;-51
2022/03/17 09:23:19;;;;;;;22.67;14.50;;;14.00;35.10;;;;;;5073423;28;20192;-51
2022/03/17 09:25:45;;;;;;;21.17;14.98;;;14.00;35.30;;;;;;5074672;28;21001;-51
2022/03/17 09:28:12;;;;;;;27.10;14.70;;;14.00;34.20;;;;;;5074696;28;20255;-51
2022/03/17 09:30:38;;;;;;;25.85;14.43;;;14.10;33.60;;;;;;5074590;28;20555;-52
2022/03/17 09:33:05;;;;;;;23.70;14.50;;;14.10;34.30;;;;;;5074689;28;20183;-51
2022/03/17 09:35:31;;;;;;;26.88;14.93;;;14.20;33.30;;;;;;5074550;28;20519;-51
2022/03/17 09:37:57;;;;;;;23.17;13.18;;;14.20;33.50;;;;;;5073163;28;20255;-51
2022/03/17 09:40:23;;;;;;;26.33;18.00;;;14.30;32.80;;;;;;5073031;28;20171;-51
2022/03/17 09:42:48;;;;;;;26.50;16.07;;;14.30;32.30;;;;;;5074487;28;20407;-51
2022/03/17 09:45:14;;;;;;;23.40;12.67;;;14.40;32.90;;;;;;5074288;28;20449;-51
2022/03/17 09:47:44;;;;;;;22.48;15.02;;;14.40;32.80;;;;;;5074242;28;20200;-51
2022/03/17 09:50:13;;;;;;;24.20;14.55;;;14.50;33.00;;;;;;5073826;28;20169;-51
2022/03/17 09:52:41;;;;;;;27.30;15.57;;;14.60;32.30;;;;;;5074466;28;20638;-51
2022/03/17 09:55:12;;;;;;;22.90;15.27;;;14.60;32.80;;;;;;5074121;28;20165;-51
2022/03/17 09:57:40;;;;;;;21.02;15.50;;;14.80;31.80;;;;;;5072226;28;20679;-51
2022/03/17 10:00:07;;;;;;;25.50;14.32;;;14.80;31.80;;;;;;5072715;28;20192;-52
2022/03/17 10:02:34;;;;;;;27.25;14.48;;;14.80;31.00;;;;;;5073969;28;20204;-51
2022/03/17 10:05:01;;;;;;;27.73;14.35;;;14.70;31.40;;;;;;5073974;28;20175;-51
2022/03/17 10:07:26;;;;;;;20.95;14.40;;;14.80;31.30;;;;;;5073854;28;20301;-51
2022/03/17 10:09:52;;;;;;;32.57;15.30;;;14.90;31.80;;;;;;5073856;28;20632;-51
2022/03/17 10:12:23;;;;;;;25.17;14.00;;;15.00;31.40;;;;;;5072555;28;20651;-51
2022/03/17 10:14:53;;;;;;;21.35;14.30;;;15.10;31.00;;;;;;5073925;28;20160;-53
2022/03/17 10:17:38;;;;;;;20.33;13.48;;;15.10;32.00;;;;;;5074017;28;20541;-51
2022/03/17 10:20:18;;;;;;;25.60;15.32;;;15.10;31.50;;;;;;5073680;28;20160;-51
2022/03/17 10:22:49;;;;;;;25.73;15.70;;;15.20;30.80;;;;;;5073710;28;20176;-51
2022/03/17 10:25:20;;;;;;;21.88;14.30;;;15.30;31.10;;;;;;5073696;28;20157;-51
2022/03/17 10:27:49;;;;;;;24.08;14.75;;;15.50;30.50;;;;;;5073758;28;20175;-51
2022/03/17 10:30:21;;;;;;;24.83;13.50;;;15.50;30.20;;;;;;5073572;28;20173;-51
2022/03/17 10:32:58;;;;;;;22.90;13.85;;;15.60;30.00;;;;;;5073496;28;20181;-51
2022/03/17 10:35:34;;;;;;;18.38;12.75;;;15.60;30.40;;;;;;5073515;28;20164;-51
2022/03/17 10:38:10;;;;;;;21.42;14.93;;;15.70;29.70;;;;;;5073513;28;20145;-52
2022/03/17 10:40:36;;;;;;;23.83;15.70;;;15.70;30.10;;;;;;5072855;28;20218;-51
2022/03/17 10:43:23;;;;;;;23.87;14.07;;;15.90;30.30;;;;;;5073695;28;20636;-51
2022/03/17 10:46:12;;;;;;;20.85;13.32;;;15.90;29.90;;;;;;5073421;28;20159;-51
2022/03/17 10:48:53;;;;;;;24.85;12.45;;;16.10;30.30;;;;;;5073414;28;20279;-51
2022/03/17 10:51:42;;;;;;;19.98;13.15;;;16.20;28.80;;;;;;5073509;28;20198;-51
2022/03/17 10:54:16;;;;;;;16.85;12.13;;;16.20;28.40;;;;;;5072372;28;20238;-51
2022/03/17 10:56:42;;;;;;;22.52;15.20;;;16.20;28.60;;;;;;5072021;28;20538;-51
2022/03/17 10:59:08;;;;;;;16.55;12.88;;;16.10;28.20;;;;;;5072566;28;20280;-51
2022/03/17 11:01:45;;;;;;;20.50;11.45;;;16.00;28.20;;;;;;5073106;28;20518;-52
2022/03/17 11:04:11;;;;;;;21.00;12.88;;;16.10;28.80;;;;;;5076977;28;20172;-51
2022/03/17 11:06:38;;;;;;;22.90;13.90;;;16.10;28.00;;;;;;5077331;28;20168;-52
2022/03/17 11:09:05;;;;;;;18.65;12.75;;;16.10;28.00;;;;;;5077319;28;20183;-51
2022/03/17 11:11:31;;;;;;;24.55;15.88;;;16.20;28.50;;;;;;5077221;28;20196;-51
2022/03/17 11:14:00;;;;;;;20.80;12.43;;;16.30;28.00;;;;;;5077227;28;20200;-51
2022/03/17 11:16:50;;;;;;;20.10;13.07;;;16.40;27.70;;;;;;5076369;28;20231;-52
2022/03/17 11:19:17;;;;;;;18.63;12.63;;;16.50;27.20;;;;;;5077192;28;20287;-51
2022/03/17 11:21:49;;;;;;;20.67;12.65;;;16.50;27.70;;;;;;5077108;28;20185;-52
2022/03/17 11:24:22;;;;;;;15.13;11.85;;;16.60;27.00;;;;;;5077080;28;20172;-51
2022/03/17 11:26:49;;;;;;;22.48;13.07;;;16.60;26.90;;;;;;5077003;28;20157;-51
2022/03/17 11:29:21;;;;;;;21.30;13.50;;;16.60;26.60;;;;;;5076834;28;20177;-51
2022/03/17 11:31:56;;;;;;;22.80;13.00;;;16.70;26.90;;;;;;5076826;28;20164;-51
2022/03/17 11:34:42;;;;;;;18.88;12.52;;;16.70;26.80;;;;;;5076935;28;20167;-49
2022/03/17 11:37:19;;;;;;;21.25;12.02;;;16.70;26.90;;;;;;5076704;28;20161;-49
2022/03/17 11:39:57;;;;;;;20.25;12.00;;;16.80;27.00;;;;;;5076702;28;20160;-49
2022/03/17 11:42:34;;;;;;;15.52;10.63;;;16.90;26.30;;;;;;5076559;28;20176;-49
2022/03/17 11:45:23;;;;;;;18.58;11.40;;;17.10;25.30;;;;;;5076565;28;20722;-48
2022/03/17 11:47:54;;;;;;;15.25;9.95;;;17.30;25.90;;;;;;5073464;28;20259;-49
2022/03/17 11:50:33;;;;;;;18.58;12.10;;;17.50;26.00;;;;;;5076491;28;20514;-49
2022/03/17 11:52:59;;;;;;;24.45;12.52;;;17.60;24.80;;;;;;5076546;28;20145;-49
2022/03/17 11:55:34;;;;;;;11.35;9.90;;;17.80;24.30;;;;;;5075631;28;20181;-49
2022/03/17 11:58:37;;;;;;;17.27;12.55;;;17.80;24.30;;;;;;5076434;28;20168;-49
2022/03/17 12:01:24;;;;;;;20.80;10.55;;;17.90;25.00;;;;;;5076213;28;20192;-49
2022/03/17 12:03:58;;;;;;;14.73;11.52;;;18.00;24.30;;;;;;5076519;28;20192;-49
2022/03/17 12:06:25;;;;;;;17.75;10.38;;;18.20;23.80;;;;;;5076216;28;20551;-49
2022/03/17 12:08:52;;;;;;;20.23;12.27;;;18.20;23.30;;;;;;5076219;28;20251;-49
2022/03/17 12:11:24;;;;;;;16.60;11.05;;;18.30;23.10;;;;;;5076079;28;20567;-49
2022/03/17 12:14:18;;;;;;;14.43;9.15;;;18.30;23.10;;;;;;5076081;28;20156;-49
2022/03/17 12:16:57;;;;;;;11.52;8.65;;;18.40;22.90;;;;;;5075994;28;20278;-49
2022/03/17 12:19:49;;;;;;;17.02;11.25;;;18.60;23.30;;;;;;5076079;28;20188;-49
2022/03/17 12:22:40;;;;;;;15.23;10.23;;;18.80;22.70;;;;;;5075910;28;20208;-49
2022/03/17 12:25:19;;;;;;;17.00;11.00;;;18.90;22.40;;;;;;5075997;28;20517;-49
2022/03/17 12:27:53;;;;;;;17.52;10.95;;;18.90;21.90;;;;;;5076141;28;20528;-49
2022/03/17 12:30:20;;;;;;;13.00;10.00;;;18.90;21.70;;;;;;5075135;28;20588;-49
2022/03/17 12:32:54;;;;;;;15.73;9.35;;;19.00;21.90;;;;;;5075798;28;20173;-49
2022/03/17 12:35:25;;;;;;;15.52;9.82;;;19.00;20.90;;;;;;5075736;28;20172;-49
2022/03/17 12:38:00;;;;;;;17.52;9.70;;;19.00;22.80;;;;;;5075762;28;20533;-49
2022/03/17 12:40:26;;;;;;;15.48;11.18;;;19.10;22.60;;;;;;5075553;28;20183;-49
2022/03/17 12:42:53;;;;;;;19.23;9.67;;;19.20;22.90;;;;;;5075634;28;20559;-49
2022/03/17 12:45:24;;;;;;;12.43;8.25;;;19.20;20.60;;;;;;5075628;28;20176;-49
2022/03/17 12:48:02;;;;;;;15.45;8.95;;;18.90;21.00;;;;;;5075148;28;20191;-49
2022/03/17 12:50:29;;;;;;;11.93;7.93;;;18.80;20.90;;;;;;5075572;28;20185;-49
2022/03/17 12:52:55;;;;;;;10.18;7.13;;;18.70;21.00;;;;;;5075319;28;20179;-49
2022/03/17 12:55:21;;;;;;;15.47;7.40;;;18.70;21.10;;;;;;5074088;28;20165;-49